Time;durP1;ratioP1;P1;durP2;ratioP2;P2;SDS_P1;SDS_P2;PMS_P1;PMS_P2;Temp;Humidity;BMP_temperature;BMP_pressure;BME280_temperature;BME280_humidity;BME280_pressure;Samples;Min_cycle;Max_cycle;Signal;HPM_P1;HPM_P2
2023/08/03 00:01:13;;;;;;;6.07;4.60;;;15.50;99.90;;;;;;1969867;72;25296;-91
2023/08/03 00:04:02;;;;;;;5.10;4.10;;;15.50;99.90;;;;;;2043724;69;25140;-91
2023/08/03 00:06:51;;;;;;;10.17;4.80;;;15.50;99.90;;;;;;2046268;69;25235;-91
2023/08/03 00:13:30;;;;;;;6.23;3.90;;;15.50;99.90;;;;;;1956819;72;26934;-89
2023/08/03 00:16:19;;;;;;;6.90;4.40;;;15.50;99.90;;;;;;1986210;71;25194;-90
2023/08/03 00:45:39;;;;;;;7.67;4.77;;;15.70;99.90;;;;;;2064740;69;26996;-90
2023/08/03 00:51:10;;;;;;;9.50;5.20;;;15.60;99.90;;;;;;1924771;72;27172;-90
2023/08/03 00:57:15;;;;;;;11.63;5.87;;;15.60;99.90;;;;;;1999616;70;27069;-90
2023/08/03 01:00:04;;;;;;;8.07;4.73;;;15.70;99.90;;;;;;1956877;72;25173;-89
2023/08/03 01:02:54;;;;;;;6.37;4.30;;;15.60;99.90;;;;;;1942265;72;25207;-90
2023/08/03 01:05:43;;;;;;;8.07;4.67;;;15.60;99.90;;;;;;1937887;72;25728;-89
2023/08/03 01:08:32;;;;;;;6.63;4.90;;;15.60;99.90;;;;;;1959029;72;25256;-90
2023/08/03 01:11:20;;;;;;;6.27;5.23;;;15.60;99.90;;;;;;1911940;73;25151;-90
2023/08/03 01:14:09;;;;;;;7.90;5.37;;;15.60;99.90;;;;;;1954251;72;25209;-90
2023/08/03 01:16:57;;;;;;;7.80;5.30;;;15.50;99.90;;;;;;1957203;72;25677;-90
2023/08/03 01:19:46;;;;;;;9.37;5.30;;;15.50;99.90;;;;;;1946327;72;25201;-90
2023/08/03 01:22:41;;;;;;;7.83;5.07;;;15.40;99.90;;;;;;1935860;72;25768;-90
2023/08/03 01:25:30;;;;;;;6.77;5.30;;;15.40;99.90;;;;;;1964268;72;25724;-90
2023/08/03 01:28:19;;;;;;;7.17;5.57;;;15.40;99.90;;;;;;1941519;73;25247;-90
2023/08/03 01:31:08;;;;;;;7.47;5.23;;;15.40;99.90;;;;;;1944633;72;25191;-90
2023/08/03 01:33:57;;;;;;;10.83;5.50;;;15.40;99.90;;;;;;1952614;72;25227;-90
2023/08/03 01:36:45;;;;;;;7.03;5.37;;;15.40;99.90;;;;;;1961907;72;25253;-90
2023/08/03 01:39:34;;;;;;;6.37;5.10;;;15.40;99.90;;;;;;1965734;72;25819;-90
2023/08/03 01:45:13;;;;;;;9.90;5.90;;;15.40;99.90;;;;;;1894631;74;27672;-90
2023/08/03 01:48:01;;;;;;;7.77;5.50;;;15.40;99.90;;;;;;1825580;77;25248;-90
2023/08/03 01:50:49;;;;;;;8.13;5.47;;;15.40;99.90;;;;;;1835868;77;25168;-90
2023/08/03 01:53:40;;;;;;;10.47;6.50;;;15.40;99.90;;;;;;1817852;77;25786;-90
2023/08/03 01:56:29;;;;;;;9.53;6.23;;;15.40;99.90;;;;;;1831480;77;25249;-90
2023/08/03 01:59:18;;;;;;;8.97;6.10;;;15.40;99.90;;;;;;1832204;77;25603;-90
2023/08/03 02:02:06;;;;;;;10.00;5.40;;;15.40;99.90;;;;;;1834046;77;25295;-90
2023/08/03 02:04:55;;;;;;;11.60;6.10;;;15.40;99.90;;;;;;1844639;77;25327;-90
2023/08/03 02:07:45;;;;;;;8.20;6.23;;;15.50;99.90;;;;;;1830981;77;25318;-90
2023/08/03 02:10:34;;;;;;;8.90;5.77;;;15.40;99.90;;;;;;1834052;77;25307;-90
2023/08/03 02:13:23;;;;;;;10.77;5.60;;;15.40;99.90;;;;;;1827269;77;25736;-90
2023/08/03 02:16:11;;;;;;;8.33;5.67;;;15.40;99.90;;;;;;1834095;77;26443;-90
2023/08/03 02:18:59;;;;;;;11.30;5.63;;;15.50;99.90;;;;;;1827834;76;26478;-90
2023/08/03 02:21:48;;;;;;;10.97;5.53;;;15.60;99.90;;;;;;1831898;77;25227;-90
2023/08/03 02:28:20;;;;;;;8.77;5.53;;;15.80;99.90;;;;;;1938169;73;26965;-90
2023/08/03 02:31:09;;;;;;;9.03;4.60;;;15.90;99.90;;;;;;1951468;72;25230;-90
2023/08/03 02:33:58;;;;;;;7.10;5.13;;;16.00;99.90;;;;;;1951023;73;25553;-90
2023/08/03 02:39:26;;;;;;;5.40;4.40;;;16.00;99.90;;;;;;1928098;72;27005;-91
2023/08/03 02:42:15;;;;;;;7.13;5.60;;;16.00;99.90;;;;;;1905139;75;25335;-91
2023/08/03 02:45:04;;;;;;;12.83;5.17;;;16.00;99.90;;;;;;1881344;75;25746;-90
2023/08/03 02:47:53;;;;;;;5.57;4.67;;;16.10;99.90;;;;;;1913629;75;25159;-90
2023/08/03 02:50:42;;;;;;;7.70;4.87;;;16.10;99.90;;;;;;1906150;75;25899;-90
2023/08/03 02:53:30;;;;;;;7.93;4.60;;;16.10;99.90;;;;;;1907341;75;25269;-89
2023/08/03 02:56:19;;;;;;;7.23;4.67;;;16.20;99.90;;;;;;1879425;75;25246;-89
2023/08/03 02:59:07;;;;;;;8.07;4.77;;;16.20;99.90;;;;;;1864881;76;25333;-89
2023/08/03 03:01:56;;;;;;;9.70;4.60;;;16.20;99.90;;;;;;1861828;76;25193;-89
2023/08/03 03:04:45;;;;;;;11.67;4.87;;;16.20;99.90;;;;;;1837151;77;25335;-89
2023/08/03 03:07:34;;;;;;;11.87;4.60;;;16.20;99.90;;;;;;1896680;75;25203;-89
2023/08/03 03:10:23;;;;;;;9.67;4.60;;;16.20;99.90;;;;;;1911015;75;25246;-89
2023/08/03 03:13:12;;;;;;;6.77;4.80;;;16.20;99.90;;;;;;1885826;75;25268;-90
2023/08/03 03:16:00;;;;;;;9.80;4.97;;;16.20;99.90;;;;;;1893068;75;25321;-90
2023/08/03 03:18:49;;;;;;;6.83;5.47;;;16.10;99.90;;;;;;1904617;75;25296;-90
2023/08/03 03:24:24;;;;;;;11.83;5.97;;;16.00;99.90;;;;;;1948886;72;27029;-89
2023/08/03 03:27:13;;;;;;;8.60;6.20;;;16.00;99.90;;;;;;1932091;73;25703;-89
2023/08/03 03:30:02;;;;;;;7.13;5.50;;;16.00;99.90;;;;;;1928409;73;25232;-89
2023/08/03 03:32:51;;;;;;;9.57;5.43;;;16.00;99.90;;;;;;1922133;73;25252;-90
2023/08/03 03:35:39;;;;;;;7.83;5.27;;;16.00;99.90;;;;;;1913084;73;25312;-89
2023/08/03 03:38:28;;;;;;;9.20;5.20;;;16.00;99.90;;;;;;1933237;73;25261;-89
2023/08/03 03:41:17;;;;;;;8.00;5.33;;;16.00;99.90;;;;;;1917499;73;25257;-89
2023/08/03 03:44:06;;;;;;;6.07;4.70;;;15.90;99.90;;;;;;1910893;74;25186;-89
2023/08/03 03:46:54;;;;;;;10.60;5.50;;;15.90;99.90;;;;;;1890866;74;25379;-90
2023/08/03 03:52:36;;;;;;;7.30;5.03;;;15.90;99.90;;;;;;1959892;72;27536;-90
2023/08/03 03:55:25;;;;;;;7.33;5.17;;;15.80;99.90;;;;;;1931383;73;25695;-90
2023/08/03 03:58:13;;;;;;;9.30;5.50;;;15.80;99.90;;;;;;1922917;73;25867;-89
2023/08/03 04:15:20;;;;;;;8.67;4.33;;;15.90;99.90;;;;;;1972442;71;26640;-89
2023/08/03 04:18:09;;;;;;;5.13;4.20;;;15.90;99.90;;;;;;1983866;71;25217;-90
2023/08/03 04:20:58;;;;;;;6.23;3.90;;;15.90;99.90;;;;;;1998508;71;25206;-90
2023/08/03 04:23:47;;;;;;;4.80;4.10;;;16.00;99.90;;;;;;1990243;72;25156;-90
2023/08/03 04:26:36;;;;;;;4.07;3.67;;;16.00;99.90;;;;;;1986311;71;25729;-89
2023/08/03 04:29:24;;;;;;;6.23;3.93;;;15.90;99.90;;;;;;1994246;71;25251;-89
2023/08/03 04:45:40;;;;;;;7.70;3.60;;;15.90;99.90;;;;;;1873513;74;27083;-91
2023/08/03 05:17:51;;;;;;;3.03;2.20;;;16.40;99.90;;;;;;1927830;73;26176;-90
2023/08/03 05:23:25;;;;;;;7.10;2.30;;;17.20;99.90;;;;;;1937054;72;27161;-89
2023/08/03 05:26:14;;;;;;;3.80;2.10;;;17.30;99.90;;;;;;1889549;75;25730;-89
2023/08/03 05:29:04;;;;;;;2.63;2.00;;;17.20;99.90;;;;;;1903134;75;25753;-89
2023/08/03 05:31:53;;;;;;;5.97;2.40;;;17.30;99.90;;;;;;1886780;75;25216;-89
2023/08/03 05:37:27;;;;;;;2.20;2.10;;;17.20;99.90;;;;;;1910659;74;27044;-90
2023/08/03 05:40:16;;;;;;;5.10;2.20;;;17.20;99.90;;;;;;1871602;76;25848;-89
2023/08/03 05:59:43;;;;;;;2.37;2.17;;;17.10;99.90;;;;;;1885231;75;27515;-89
2023/08/03 06:17:29;;;;;;;4.23;2.30;;;16.90;99.90;;;;;;2008269;71;26341;-90
2023/08/03 06:22:59;;;;;;;4.07;2.03;;;17.20;99.90;;;;;;2016791;69;27009;-90
2023/08/03 06:25:48;;;;;;;4.13;2.30;;;17.30;99.90;;;;;;1981601;72;26518;-89
2023/08/03 06:31:19;;;;;;;2.87;2.10;;;17.30;99.90;;;;;;1909101;72;26993;-90
2023/08/03 06:34:10;;;;;;;2.93;2.10;;;17.40;99.90;;;;;;1892729;74;25264;-89
2023/08/03 06:39:53;;;;;;;2.20;2.00;;;17.30;99.90;;;;;;1945587;72;26954;-90
2023/08/03 06:42:43;;;;;;;3.70;2.07;;;17.30;99.90;;;;;;1924216;73;25269;-91
2023/08/03 06:45:33;;;;;;;2.43;1.93;;;17.30;99.90;;;;;;1906086;73;25248;-91
2023/08/03 06:48:22;;;;;;;2.23;1.90;;;17.30;99.90;;;;;;1937270;73;25236;-89
2023/08/03 06:51:11;;;;;;;3.23;1.80;;;17.30;99.90;;;;;;1914749;74;25643;-90
2023/08/03 06:54:02;;;;;;;1.27;1.17;;;17.30;99.90;;;;;;1914514;73;25246;-90
2023/08/03 06:56:50;;;;;;;4.30;1.83;;;17.40;99.90;;;;;;1916816;73;25221;-90
2023/08/03 06:59:39;;;;;;;2.20;2.00;;;17.40;99.90;;;;;;1921524;73;25263;-90
2023/08/03 07:02:27;;;;;;;5.07;2.00;;;17.40;99.90;;;;;;1910412;74;25627;-91
2023/08/03 07:05:17;;;;;;;2.73;1.90;;;17.60;99.90;;;;;;1924817;73;25237;-90
2023/08/03 07:08:05;;;;;;;2.53;1.90;;;17.60;99.90;;;;;;1881544;75;25265;-91
2023/08/03 07:10:54;;;;;;;1.90;1.80;;;17.70;99.90;;;;;;1890708;75;25249;-91
2023/08/03 07:16:29;;;;;;;2.30;2.10;;;17.80;99.90;;;;;;1948163;72;27068;-89
2023/08/03 07:23:01;;;;;;;3.20;1.90;;;17.80;99.90;;;;;;1983868;71;26973;-89
2023/08/03 07:28:28;;;;;;;1.97;1.87;;;17.90;99.90;;;;;;1940266;72;27604;-89
2023/08/03 07:34:00;;;;;;;1.67;1.57;;;17.90;99.90;;;;;;1898814;74;27556;-89
2023/08/03 07:36:50;;;;;;;3.07;1.90;;;18.00;99.90;;;;;;1840406;77;25290;-89
2023/08/03 07:39:38;;;;;;;2.10;1.90;;;18.00;99.90;;;;;;1845926;77;25916;-89
2023/08/03 07:42:27;;;;;;;2.00;1.90;;;18.10;99.90;;;;;;1842294;76;25313;-89
2023/08/03 07:45:15;;;;;;;2.03;1.90;;;18.20;99.90;;;;;;1862333;76;25319;-89
2023/08/03 07:48:04;;;;;;;2.60;1.80;;;18.20;99.90;;;;;;1877628;76;25289;-89
2023/08/03 07:50:53;;;;;;;1.80;1.60;;;18.30;99.90;;;;;;1867740;76;26559;-89
2023/08/03 07:53:42;;;;;;;3.93;2.10;;;18.40;99.90;;;;;;1868347;76;25973;-89
2023/08/03 07:56:31;;;;;;;1.97;1.70;;;18.30;99.90;;;;;;1861080;76;25768;-89
2023/08/03 08:02:11;;;;;;;4.90;2.10;;;18.10;99.90;;;;;;1900185;74;27126;-89
2023/08/03 08:04:59;;;;;;;5.97;2.17;;;18.30;99.90;;;;;;1855323;76;25288;-89
2023/08/03 08:10:30;;;;;;;2.57;1.87;;;18.20;99.90;;;;;;1990838;71;27435;-89
2023/08/03 08:16:02;;;;;;;2.07;1.80;;;18.30;99.90;;;;;;2016886;69;26918;-89
2023/08/03 08:18:51;;;;;;;2.13;1.80;;;18.30;99.90;;;;;;1949206;72;25210;-89
2023/08/03 08:21:40;;;;;;;2.50;2.00;;;18.30;99.90;;;;;;1931494;72;25700;-89
2023/08/03 08:24:28;;;;;;;2.10;1.90;;;18.50;99.90;;;;;;1930505;74;25224;-89
2023/08/03 08:27:20;;;;;;;2.23;1.80;;;18.70;99.90;;;;;;1912460;74;25177;-89
2023/08/03 08:30:12;;;;;;;1.80;1.70;;;18.80;99.90;;;;;;1958105;72;25225;-89
2023/08/03 08:33:01;;;;;;;3.00;1.80;;;19.00;99.90;;;;;;1979335;72;25662;-89
2023/08/03 08:35:51;;;;;;;1.70;1.60;;;19.10;99.90;;;;;;1971313;72;25239;-89
2023/08/03 08:41:31;;;;;;;2.67;1.80;;;19.70;99.90;;;;;;1946634;72;27157;-89
2023/08/03 08:44:20;;;;;;;3.37;1.90;;;19.90;99.90;;;;;;1915393;74;25746;-89
2023/08/03 08:47:09;;;;;;;2.13;1.80;;;20.10;99.90;;;;;;1913504;73;25254;-89
2023/08/03 08:53:12;;;;;;;1.80;1.70;;;20.10;99.90;;;;;;1973048;71;26711;-89
2023/08/03 09:00:15;;;;;;;2.10;2.00;;;19.60;99.90;;;;;;1995194;70;26335;-89
2023/08/03 09:03:05;;;;;;;2.20;2.00;;;19.50;99.90;;;;;;2022260;70;25180;-89
2023/08/03 09:06:00;;;;;;;1.97;1.67;;;19.70;99.90;;;;;;2021634;70;25217;-89
2023/08/03 09:08:58;;;;;;;2.10;1.90;;;20.20;99.90;;;;;;1997554;72;25216;-89
2023/08/03 09:11:46;;;;;;;2.90;1.83;;;20.60;99.90;;;;;;2006994;70;25800;-89
2023/08/03 09:14:44;;;;;;;3.60;2.00;;;20.80;99.90;;;;;;1978875;72;25161;-89
2023/08/03 09:17:32;;;;;;;2.57;1.90;;;20.70;99.90;;;;;;1974298;71;25178;-89
2023/08/03 09:20:26;;;;;;;2.73;2.00;;;20.60;99.90;;;;;;2017204;70;25286;-89
2023/08/03 09:23:28;;;;;;;1.90;1.80;;;20.40;99.90;;;;;;2023062;70;25316;-89
2023/08/03 09:26:23;;;;;;;2.30;1.90;;;20.30;99.90;;;;;;2008707;70;25264;-89
2023/08/03 09:29:14;;;;;;;1.80;1.70;;;20.60;99.90;;;;;;2020721;70;25613;-89
2023/08/03 09:43:23;;;;;;;2.13;1.73;;;21.10;99.90;;;;;;1930688;72;27508;-89
2023/08/03 09:46:14;;;;;;;1.70;1.60;;;20.90;99.90;;;;;;1866187;76;25295;-89
2023/08/03 09:49:03;;;;;;;1.97;1.60;;;20.60;99.90;;;;;;1868790;76;25217;-89
2023/08/03 09:51:53;;;;;;;2.13;1.33;;;20.50;99.90;;;;;;1915371;73;25559;-89
2023/08/03 09:54:46;;;;;;;2.50;1.70;;;20.80;99.90;;;;;;1911767;73;26054;-89
2023/08/03 09:57:38;;;;;;;2.07;1.33;;;20.80;99.90;;;;;;1862445;75;25800;-89
2023/08/03 10:00:27;;;;;;;2.17;1.60;;;20.80;99.90;;;;;;1812925;77;25345;-89
2023/08/03 10:03:18;;;;;;;1.83;1.40;;;20.70;99.90;;;;;;1844242;76;25205;-89
2023/08/03 10:06:10;;;;;;;1.47;1.37;;;20.80;99.90;;;;;;1833546;76;25333;-89
2023/08/03 10:09:02;;;;;;;1.60;1.50;;;20.60;99.90;;;;;;1851539;76;25283;-89
2023/08/03 10:11:55;;;;;;;1.43;1.33;;;20.50;99.90;;;;;;1842359;76;25792;-89
2023/08/03 10:14:46;;;;;;;1.60;1.33;;;20.20;99.90;;;;;;1857829;76;25355;-89
2023/08/03 10:17:35;;;;;;;2.67;1.20;;;20.20;99.90;;;;;;1874225;75;25278;-89
2023/08/03 10:23:15;;;;;;;1.40;1.30;;;20.60;99.90;;;;;;1923099;72;27064;-89
2023/08/03 10:26:04;;;;;;;1.60;1.43;;;20.70;99.90;;;;;;1866428;76;25341;-87
2023/08/03 10:31:34;;;;;;;3.33;1.33;;;20.90;99.90;;;;;;1962758;72;27003;-89
2023/08/03 10:34:27;;;;;;;1.63;1.53;;;20.70;99.90;;;;;;1916556;73;25512;-89
2023/08/03 10:37:16;;;;;;;1.50;1.40;;;20.70;99.90;;;;;;1918472;73;25311;-89
2023/08/03 10:40:05;;;;;;;6.30;1.67;;;20.70;99.90;;;;;;1932668;73;25238;-89
2023/08/03 10:43:11;;;;;;;1.40;1.30;;;20.60;99.90;;;;;;1897095;73;25284;-89
2023/08/03 10:48:53;;;;;;;5.03;1.37;;;20.90;99.90;;;;;;1947453;72;27021;-89
2023/08/03 10:51:42;;;;;;;1.60;1.50;;;20.70;99.90;;;;;;1912990;73;25208;-89
2023/08/03 10:54:32;;;;;;;1.93;1.43;;;20.50;99.90;;;;;;1902143;75;25267;-89
2023/08/03 10:57:24;;;;;;;2.00;1.80;;;20.70;99.90;;;;;;1879147;75;25508;-89
2023/08/03 11:00:14;;;;;;;3.63;1.40;;;20.90;99.90;;;;;;1875333;75;25189;-89
2023/08/03 11:03:03;;;;;;;1.70;1.40;;;21.00;99.90;;;;;;1892626;75;25784;-89
2023/08/03 11:05:56;;;;;;;4.80;1.50;;;21.00;99.90;;;;;;1909159;75;25710;-89
2023/08/03 11:08:46;;;;;;;1.70;1.60;;;21.00;99.90;;;;;;1901954;75;25688;-89
2023/08/03 11:11:35;;;;;;;2.70;1.30;;;21.20;99.90;;;;;;1908952;75;25647;-89
2023/08/03 11:17:08;;;;;;;2.07;1.33;;;21.20;99.90;;;;;;1942950;72;27035;-89
2023/08/03 11:23:15;;;;;;;1.40;1.30;;;21.00;99.90;;;;;;1867960;75;27263;-89
2023/08/03 11:26:06;;;;;;;1.40;1.30;;;20.70;99.90;;;;;;1824821;78;25754;-89
2023/08/03 11:28:55;;;;;;;1.50;1.40;;;20.70;99.90;;;;;;1838626;77;25720;-89
2023/08/03 11:31:44;;;;;;;1.70;1.40;;;20.80;99.90;;;;;;1829702;78;25372;-89
2023/08/03 11:34:33;;;;;;;1.43;1.33;;;20.80;99.90;;;;;;1833688;78;25906;-89
2023/08/03 11:37:22;;;;;;;1.50;1.40;;;20.80;99.90;;;;;;1829222;78;25328;-89
2023/08/03 11:40:12;;;;;;;1.97;1.20;;;21.00;99.90;;;;;;1841054;78;25224;-89
2023/08/03 11:43:02;;;;;;;2.13;1.47;;;20.90;99.90;;;;;;1813228;78;25298;-89
2023/08/03 11:45:50;;;;;;;1.43;1.33;;;20.90;99.90;;;;;;1807649;78;25294;-89
2023/08/03 11:48:39;;;;;;;1.47;1.20;;;20.90;99.90;;;;;;1816079;78;25613;-89
2023/08/03 11:51:37;;;;;;;2.20;1.50;;;20.80;99.90;;;;;;1814894;78;25304;-90
2023/08/03 11:54:27;;;;;;;1.90;1.40;;;20.80;99.90;;;;;;1804951;78;25215;-90
2023/08/03 12:00:24;;;;;;;1.77;1.27;;;20.70;99.90;;;;;;1812975;78;25780;-90
2023/08/03 12:03:14;;;;;;;1.40;1.30;;;20.70;99.90;;;;;;1815981;78;25273;-90
2023/08/03 12:06:05;;;;;;;2.50;1.20;;;20.70;99.90;;;;;;1789959;78;25290;-90
2023/08/03 12:11:39;;;;;;;3.07;1.40;;;20.60;99.90;;;;;;1944801;72;27386;-89
2023/08/03 12:14:28;;;;;;;1.90;1.30;;;20.40;99.90;;;;;;1921003;73;25269;-89
2023/08/03 12:17:18;;;;;;;9.17;1.97;;;20.20;99.90;;;;;;1928055;73;25288;-89
2023/08/03 12:20:08;;;;;;;6.53;1.70;;;19.20;99.90;;;;;;1939024;73;25266;-90
2023/08/03 12:22:57;;;;;;;2.93;1.60;;;18.80;99.90;;;;;;1927643;73;25598;-90
2023/08/03 12:25:46;;;;;;;3.73;1.80;;;18.70;99.90;;;;;;1938118;73;25177;-90
2023/08/03 12:31:28;;;;;;;3.33;1.40;;;19.10;99.90;;;;;;1943822;72;27031;-90
2023/08/03 12:34:16;;;;;;;1.50;1.40;;;19.40;99.90;;;;;;1945742;73;25255;-90
2023/08/03 12:37:09;;;;;;;1.60;1.50;;;19.50;99.90;;;;;;1917267;73;25215;-90
2023/08/03 12:39:58;;;;;;;2.47;1.30;;;19.70;99.90;;;;;;1942200;73;25162;-90
2023/08/03 12:42:47;;;;;;;3.07;1.40;;;20.00;99.90;;;;;;1930757;73;25733;-90
2023/08/03 12:45:35;;;;;;;2.93;1.50;;;20.10;99.90;;;;;;1944153;72;25297;-90
2023/08/03 12:53:37;;;;;;;3.00;1.40;;;20.20;99.90;;;;;;1979607;71;27268;-90
2023/08/03 12:56:29;;;;;;;1.60;1.50;;;20.50;99.90;;;;;;1936406;73;25324;-90
2023/08/03 12:59:17;;;;;;;1.60;1.50;;;20.50;99.90;;;;;;2027885;70;25156;-89
2023/08/03 13:05:21;;;;;;;1.77;1.50;;;20.40;99.90;;;;;;1958848;72;27069;-92
2023/08/03 13:08:12;;;;;;;1.50;1.40;;;20.30;99.90;;;;;;1960498;72;25290;-91
2023/08/03 13:11:02;;;;;;;1.70;1.40;;;20.50;99.90;;;;;;1975542;72;25250;-90
2023/08/03 13:13:50;;;;;;;1.23;1.17;;;20.50;99.90;;;;;;1982949;72;25252;-89
2023/08/03 13:16:39;;;;;;;1.40;1.30;;;20.40;99.90;;;;;;1985513;70;25175;-90
2023/08/03 13:19:28;;;;;;;2.27;1.30;;;20.30;99.90;;;;;;1993086;72;25276;-89
2023/08/03 13:22:17;;;;;;;3.53;1.40;;;20.10;99.90;;;;;;1996806;71;25248;-90
2023/08/03 13:25:07;;;;;;;1.53;1.23;;;20.20;99.90;;;;;;1960047;72;25301;-89
2023/08/03 13:30:41;;;;;;;2.50;1.40;;;20.30;99.90;;;;;;1949527;72;26989;-89
2023/08/03 13:33:29;;;;;;;1.50;1.40;;;20.30;99.90;;;;;;1942902;73;25650;-89
2023/08/03 13:36:18;;;;;;;4.60;1.70;;;20.20;99.90;;;;;;1926065;73;25683;-89
2023/08/03 13:39:06;;;;;;;1.40;1.30;;;20.20;99.90;;;;;;1936825;73;25306;-89
2023/08/03 13:41:54;;;;;;;3.50;1.60;;;20.30;99.90;;;;;;1916136;73;25317;-89
2023/08/03 13:44:43;;;;;;;1.63;1.53;;;20.30;99.90;;;;;;1910197;73;25603;-89
2023/08/03 13:50:24;;;;;;;6.10;1.40;;;20.40;99.90;;;;;;1948997;72;27008;-89
2023/08/03 13:56:30;;;;;;;2.13;1.40;;;20.30;99.90;;;;;;1992172;71;27254;-90
2023/08/03 14:16:10;;;;;;;4.67;1.37;;;19.90;99.90;;;;;;1984118;71;27647;-90
2023/08/03 14:18:58;;;;;;;2.80;1.20;;;19.90;99.90;;;;;;1948647;73;25202;-89
2023/08/03 14:21:47;;;;;;;3.17;1.40;;;19.80;99.90;;;;;;1928972;73;25173;-89
2023/08/03 14:24:35;;;;;;;3.17;1.40;;;19.70;99.90;;;;;;1922974;73;25180;-89
2023/08/03 14:27:24;;;;;;;1.80;1.53;;;19.70;99.90;;;;;;1921350;73;25999;-89
2023/08/03 14:32:55;;;;;;;2.20;1.50;;;19.60;99.90;;;;;;1945601;72;26858;-90
2023/08/03 14:35:44;;;;;;;1.77;1.40;;;19.60;99.90;;;;;;1944120;73;25768;-90
2023/08/03 14:54:29;;;;;;;1.70;1.60;;;20.00;99.90;;;;;;1881859;75;27660;-90
2023/08/03 14:57:17;;;;;;;1.47;1.37;;;20.00;99.90;;;;;;1823247;78;25563;-89
2023/08/03 15:00:10;;;;;;;2.23;1.50;;;19.70;99.90;;;;;;1809482;78;25260;-90
2023/08/03 15:05:42;;;;;;;1.67;1.50;;;19.70;99.90;;;;;;1921939;74;27956;-89
2023/08/03 15:11:24;;;;;;;2.10;1.60;;;19.70;99.90;;;;;;2034372;69;27018;-90
2023/08/03 15:14:13;;;;;;;1.73;1.10;;;19.60;99.90;;;;;;2012760;71;25217;-89
2023/08/03 15:17:02;;;;;;;1.37;1.20;;;19.50;99.90;;;;;;1993198;70;25799;-89
2023/08/03 15:19:50;;;;;;;1.57;1.10;;;19.40;99.90;;;;;;2015744;71;25232;-90
2023/08/03 15:22:39;;;;;;;1.20;1.00;;;19.30;99.90;;;;;;1992558;71;25634;-89
2023/08/03 15:25:28;;;;;;;1.20;1.10;;;19.20;99.90;;;;;;1993219;71;25655;-89
2023/08/03 15:28:17;;;;;;;1.97;1.10;;;19.10;99.90;;;;;;1992974;71;25201;-89
2023/08/03 15:31:06;;;;;;;2.17;1.17;;;19.10;99.90;;;;;;1993153;72;25214;-90
2023/08/03 15:33:55;;;;;;;1.30;1.00;;;19.10;99.90;;;;;;1992852;71;25653;-89
2023/08/03 15:36:45;;;;;;;2.87;0.97;;;19.10;99.90;;;;;;1992817;71;25216;-90
2023/08/03 15:39:33;;;;;;;2.97;1.10;;;19.20;99.90;;;;;;1992711;71;25627;-91
2023/08/03 15:42:22;;;;;;;3.23;1.00;;;19.30;99.90;;;;;;1975591;71;25814;-90
2023/08/03 15:45:11;;;;;;;1.23;0.90;;;19.10;99.90;;;;;;1990185;72;25230;-90
2023/08/03 15:48:01;;;;;;;1.80;1.30;;;18.90;99.90;;;;;;1987456;72;25272;-90
2023/08/03 15:53:42;;;;;;;1.53;1.27;;;18.90;99.90;;;;;;1947814;72;27451;-89
2023/08/03 15:56:30;;;;;;;1.50;1.00;;;19.00;99.90;;;;;;1931845;73;25315;-90
2023/08/03 15:59:19;;;;;;;3.80;1.20;;;18.90;99.90;;;;;;1917696;73;26747;-89
2023/08/03 16:02:08;;;;;;;2.47;1.17;;;18.80;99.90;;;;;;1916599;73;25255;-90
2023/08/03 16:04:57;;;;;;;2.30;1.10;;;18.70;99.90;;;;;;1917574;73;25186;-89
2023/08/03 16:07:46;;;;;;;3.90;1.10;;;18.60;99.90;;;;;;1917305;73;25241;-89
2023/08/03 16:10:35;;;;;;;3.80;1.30;;;18.50;99.90;;;;;;1931294;73;25168;-90
2023/08/03 16:13:24;;;;;;;3.43;1.13;;;18.40;99.90;;;;;;1938148;73;25234;-90
2023/08/03 16:16:13;;;;;;;1.43;1.20;;;18.30;99.90;;;;;;1916284;73;25435;-90
2023/08/03 16:19:02;;;;;;;1.43;1.10;;;18.20;99.90;;;;;;1917717;73;25235;-90
2023/08/03 16:21:51;;;;;;;1.10;1.10;;;18.20;99.90;;;;;;1916764;73;25621;-90
2023/08/03 16:24:39;;;;;;;1.00;1.00;;;18.00;99.90;;;;;;1925138;73;25278;-90
2023/08/03 16:43:43;;;;;;;1.40;1.30;;;18.00;99.90;;;;;;1925849;72;27726;-89
2023/08/03 16:46:32;;;;;;;2.77;1.20;;;18.10;99.90;;;;;;1897022;75;25290;-89
2023/08/03 16:49:22;;;;;;;1.80;1.40;;;18.20;99.90;;;;;;1914062;74;25252;-89
2023/08/03 16:52:12;;;;;;;1.20;1.10;;;18.00;99.90;;;;;;1874387;76;25263;-89
2023/08/03 16:57:50;;;;;;;1.13;1.13;;;17.80;99.90;;;;;;1959036;72;26892;-89
2023/08/03 17:00:38;;;;;;;1.10;1.10;;;17.80;99.90;;;;;;1936538;72;25297;-89
2023/08/03 17:03:27;;;;;;;2.00;1.30;;;17.80;99.90;;;;;;1928143;74;25762;-90
2023/08/03 17:09:00;;;;;;;3.30;1.50;;;17.60;99.90;;;;;;1925829;72;26898;-89
2023/08/03 17:11:48;;;;;;;1.70;1.33;;;17.50;99.90;;;;;;1870096;76;25773;-89
2023/08/03 17:14:37;;;;;;;1.60;1.50;;;17.50;99.90;;;;;;1812476;76;25234;-89
2023/08/03 17:17:26;;;;;;;1.53;1.40;;;17.50;99.90;;;;;;1896726;75;25712;-90
2023/08/03 17:23:06;;;;;;;2.00;1.50;;;17.60;99.90;;;;;;1941963;72;27134;-89
2023/08/03 17:25:55;;;;;;;4.60;1.40;;;17.50;99.90;;;;;;1944031;73;25237;-89
2023/08/03 17:28:44;;;;;;;1.23;1.13;;;17.50;99.90;;;;;;1928391;73;25162;-89
2023/08/03 17:31:33;;;;;;;6.93;1.57;;;17.30;99.90;;;;;;1888118;75;25257;-90
2023/08/03 17:34:24;;;;;;;3.93;1.30;;;17.30;99.90;;;;;;1944534;73;25181;-89
2023/08/03 17:37:11;;;;;;;1.93;1.57;;;17.20;99.90;;;;;;1927551;73;25249;-90
2023/08/03 17:53:15;;;;;;;1.50;1.40;;;17.30;99.90;;;;;;1942135;72;26762;-89
2023/08/03 18:13:41;;;;;;;3.37;1.53;;;17.00;99.90;;;;;;1989049;71;27543;-89
2023/08/03 18:16:30;;;;;;;2.73;1.60;;;17.00;99.90;;;;;;2015171;69;25246;-90
2023/08/03 18:19:19;;;;;;;4.40;1.60;;;16.90;99.90;;;;;;2028837;69;25266;-89
2023/08/03 18:22:09;;;;;;;1.60;1.50;;;16.90;99.90;;;;;;2008435;70;25285;-89
2023/08/03 18:24:58;;;;;;;1.63;1.53;;;16.90;99.90;;;;;;2004362;70;25515;-90
2023/08/03 18:32:33;;;;;;;2.10;1.40;;;16.90;99.90;;;;;;2048492;69;26319;-90
2023/08/03 18:35:22;;;;;;;1.67;1.40;;;16.80;99.90;;;;;;2003987;71;25324;-89
2023/08/03 18:38:11;;;;;;;2.10;1.50;;;16.90;99.90;;;;;;2008616;71;25239;-90
2023/08/03 18:40:59;;;;;;;1.60;1.50;;;17.00;99.90;;;;;;1922994;73;25252;-90
2023/08/03 18:43:50;;;;;;;1.73;1.60;;;16.90;99.90;;;;;;2009576;71;25236;-90
2023/08/03 18:46:39;;;;;;;2.00;1.80;;;16.90;99.90;;;;;;2006838;71;25361;-90
2023/08/03 18:49:27;;;;;;;4.07;1.80;;;16.90;99.90;;;;;;2007565;71;25203;-89
2023/08/03 18:52:16;;;;;;;6.53;1.60;;;17.00;99.90;;;;;;1964740;72;25247;-89
2023/08/03 18:55:05;;;;;;;2.67;1.60;;;16.90;99.90;;;;;;1955784;72;25213;-90
2023/08/03 18:57:54;;;;;;;1.77;1.50;;;16.90;99.90;;;;;;2012696;71;25281;-90
2023/08/03 19:03:29;;;;;;;1.70;1.60;;;16.80;99.90;;;;;;1962063;72;27084;-90
2023/08/03 19:08:59;;;;;;;3.97;1.73;;;16.90;99.90;;;;;;2015053;69;27062;-90
2023/08/03 19:11:48;;;;;;;2.20;1.63;;;16.90;99.90;;;;;;1979788;72;25726;-90
2023/08/03 19:14:37;;;;;;;2.70;1.80;;;16.80;99.90;;;;;;1956250;72;25209;-90
2023/08/03 19:17:25;;;;;;;6.03;1.80;;;16.80;99.90;;;;;;1959373;72;25192;-90
2023/08/03 19:20:14;;;;;;;1.70;1.60;;;16.90;99.90;;;;;;1958766;72;25244;-90
2023/08/03 19:23:04;;;;;;;2.33;1.53;;;16.90;99.90;;;;;;1966175;72;25623;-90
2023/08/03 19:25:54;;;;;;;4.30;1.80;;;16.80;99.90;;;;;;1958509;72;25218;-90
2023/08/03 19:28:43;;;;;;;1.90;1.70;;;16.80;99.90;;;;;;1976020;72;25243;-90
2023/08/03 19:31:31;;;;;;;1.97;1.83;;;16.80;99.90;;;;;;1961605;72;25211;-90
2023/08/03 19:34:20;;;;;;;7.20;1.90;;;16.80;99.90;;;;;;1927272;74;25153;-90
2023/08/03 19:37:08;;;;;;;2.00;1.67;;;16.80;99.90;;;;;;1930275;74;25218;-91
2023/08/03 19:39:57;;;;;;;4.33;1.60;;;16.90;99.90;;;;;;1901320;74;25222;-91
2023/08/03 19:45:26;;;;;;;4.30;1.80;;;16.80;99.90;;;;;;1930246;72;27134;-90
2023/08/03 19:50:54;;;;;;;3.20;1.67;;;16.70;99.90;;;;;;1932106;72;27108;-89
2023/08/03 19:53:42;;;;;;;1.87;1.77;;;16.70;99.90;;;;;;1851722;76;25697;-89
2023/08/03 19:56:31;;;;;;;2.40;1.97;;;16.70;99.90;;;;;;1837969;77;25682;-89
2023/08/03 19:59:20;;;;;;;2.23;1.50;;;16.70;99.90;;;;;;1869904;75;25215;-89
2023/08/03 20:02:09;;;;;;;1.63;1.53;;;16.60;99.90;;;;;;1893314;75;25196;-89
2023/08/03 20:04:58;;;;;;;2.27;1.70;;;16.70;99.90;;;;;;1872345;76;25749;-89
2023/08/03 20:07:47;;;;;;;3.37;1.90;;;16.60;99.90;;;;;;1799774;76;25739;-89
2023/08/03 20:10:36;;;;;;;1.80;1.70;;;16.70;99.90;;;;;;1886887;75;25292;-89
2023/08/03 20:13:24;;;;;;;5.10;1.70;;;16.60;99.90;;;;;;1888649;75;25304;-89
2023/08/03 20:16:13;;;;;;;1.80;1.70;;;16.60;99.90;;;;;;1860065;75;25249;-89
2023/08/03 20:21:44;;;;;;;1.67;1.57;;;16.60;99.90;;;;;;1901109;74;27741;-89
2023/08/03 20:24:32;;;;;;;2.07;1.87;;;16.60;99.90;;;;;;1862542;77;25767;-90
2023/08/03 20:30:36;;;;;;;2.00;1.80;;;16.70;99.90;;;;;;1981122;71;27025;-88
2023/08/03 20:36:07;;;;;;;1.80;1.70;;;16.60;99.90;;;;;;1942786;72;26857;-89
2023/08/03 20:38:56;;;;;;;1.70;1.60;;;16.70;99.90;;;;;;1916383;73;25277;-90